Hlavní strana
METAR-TAF:

METAR-TAF

Letiště :

Mauricius, Mauritius

zeměpisná šířka: 20-26S, zeměpisná délka: 057-40E, výška: 55 m

Aktuální stav počasí

Zpráva byla vytvořena před 57 minutami, v 17:00 UTC
Východoseverovýchodní vítr 11 kt
Teplota 22°C
Vlhkost vzduchu 83%
Tlak 1018 hPa
Viditelnost 10 km a více
Polojasno ve výšce 1700 ft

METAR: FIMP 201700Z 07011KT 9999 SCT017 22/19 Q1018

Čas: 21:57 (17:57 UTC)

Předpověď počasí

Zpráva byla vytvořena před 27 minutami, v 17:30 UTC
Předpověď platná od 20 v 18 UTC do 22 v 00 UTC
Východní vítr 10 kt s nárazy do 22 kt
Viditelnost 10 km a více
Polojasno ve výšce 1700 ft
Dočasný
od 20 v 20 UTC do 21 v 04 UTC
Viditelnost: 7000 m
Oblačno až skoro zataženo ve výšce 1600 ft
slabé dešťové přeháňky
Změna
od 21 v 04 UTC do 21 v 06 UTC
Východoseverovýchodní vítr 7 kt

TAF: FIMP 201730Z 2018/2200 08010G22KT 9999 SCT017 TEMPO 2020/2104 7000 -SHRA BKN016 BECMG 2104/2106 06007KT

Stav a předpovědi počasí z více než 4 000 letišť (zprávy METAR a TAF).

Červené a žluté tečky na mapě představují dostupné meteorologické stanice.

Když kurzor umístíte na tečku, zobrazí se název stanice.

Pak kliknutím zobrazíte stav a předpověď počasí.

Chcete-li změnit mapu, kliknutím na zelené tlačítko se znaménkem +mapu přiblížíte, kliknutím na zelené tlačítko se znaménkem – mapu oddálíte a kliknutím na zelené šipky přejdete na sousední mapy.


METAR-TAF: